createdAt,value
2022-12-20T00:01:12.171Z,42.75
2022-12-20T00:03:19.624Z,41.47
2022-12-20T00:05:26.623Z,44.28
2022-12-20T00:07:33.653Z,41.53
2022-12-20T00:09:40.643Z,40.70
2022-12-20T00:11:47.710Z,42.67
2022-12-20T00:13:54.636Z,40.72
2022-12-20T00:16:10.567Z,44.58
2022-12-20T00:18:17.346Z,46.15
2022-12-20T00:20:24.674Z,44.88
2022-12-20T00:22:31.653Z,40.65
2022-12-20T00:24:38.782Z,39.55
2022-12-20T00:26:45.964Z,40.28
2022-12-20T00:28:53.206Z,39.95
2022-12-20T00:31:00.444Z,41.03
2022-12-20T00:33:08.943Z,44.08
2022-12-20T00:35:16.072Z,48.47
2022-12-20T00:37:22.797Z,52.95
2022-12-20T00:39:29.922Z,73.80
2022-12-20T00:41:37.360Z,81.95
2022-12-20T00:43:45.072Z,82.70
2022-12-20T00:45:51.724Z,64.07
2022-12-20T00:47:58.804Z,47.92
2022-12-20T00:50:08.089Z,43.78
2022-12-20T00:52:15.369Z,35.17
2022-12-20T00:54:22.195Z,29.40
2022-12-20T00:56:29.219Z,30.05
2022-12-20T00:58:37.169Z,31.27
2022-12-20T01:00:47.815Z,30.83
2022-12-20T01:02:57.755Z,31.20
2022-12-20T01:05:07.261Z,29.17
2022-12-20T01:07:14.095Z,29.65
2022-12-20T01:09:21.269Z,28.77
2022-12-20T01:11:29.733Z,26.50
2022-12-20T01:13:38.650Z,24.55
2022-12-20T01:15:45.677Z,23.00
2022-12-20T01:17:52.836Z,21.73
2022-12-20T01:19:59.581Z,21.10
2022-12-20T01:22:08.298Z,20.90
2022-12-20T01:24:15.330Z,20.95
2022-12-20T01:26:24.864Z,20.75
2022-12-20T01:28:32.505Z,20.13
2022-12-20T01:30:43.118Z,20.05
2022-12-20T01:32:49.953Z,20.52
2022-12-20T01:34:58.362Z,20.25
2022-12-20T01:37:05.739Z,20.98
2022-12-20T01:39:16.550Z,18.63
2022-12-20T01:41:25.474Z,14.63
2022-12-20T01:43:51.281Z,74.35
2022-12-20T01:45:58.587Z,31.83
2022-12-20T01:48:05.504Z,17.02
2022-12-20T01:50:13.197Z,14.93
2022-12-20T01:52:26.171Z,18.15
2022-12-20T01:54:37.957Z,17.95
2022-12-20T01:56:47.756Z,14.65
2022-12-20T01:58:57.949Z,15.27
2022-12-20T02:01:05.142Z,15.45
2022-12-20T02:03:15.013Z,17.35
2022-12-20T02:05:24.735Z,16.45
2022-12-20T02:07:37.274Z,15.80
2022-12-20T02:09:44.438Z,22.15
2022-12-20T02:12:08.019Z,16.52
2022-12-20T02:14:23.706Z,17.58
2022-12-20T02:16:33.382Z,17.35
2022-12-20T02:18:46.159Z,18.15
2022-12-20T02:21:20.980Z,18.70
2022-12-20T02:23:52.641Z,35.28
2022-12-20T02:26:13.336Z,18.33
2022-12-20T02:28:42.287Z,17.58
2022-12-20T02:30:57.655Z,20.23
2022-12-20T02:33:07.346Z,18.75
2022-12-20T02:35:18.515Z,18.38
2022-12-20T02:37:25.695Z,16.92
2022-12-20T02:39:35.334Z,18.58
2022-12-20T02:41:46.821Z,17.58
2022-12-20T02:44:15.403Z,14.15
2022-12-20T02:46:25.683Z,14.77
2022-12-20T02:48:36.213Z,14.02
2022-12-20T02:50:47.390Z,13.00
2022-12-20T02:52:55.082Z,11.93
2022-12-20T02:55:03.241Z,11.25
2022-12-20T02:57:19.436Z,11.35
2022-12-20T02:59:28.863Z,11.48
2022-12-20T03:01:42.182Z,11.68
2022-12-20T03:03:49.308Z,12.43
2022-12-20T03:05:58.039Z,11.35
2022-12-20T03:08:05.118Z,10.95
2022-12-20T03:10:13.680Z,10.75
2022-12-20T03:12:20.757Z,11.23
2022-12-20T03:14:28.553Z,11.02
2022-12-20T03:16:39.411Z,11.63
2022-12-20T03:18:47.425Z,10.23
2022-12-20T03:20:54.709Z,10.68
2022-12-20T03:23:01.584Z,10.00
2022-12-20T03:25:10.198Z,10.15
2022-12-20T03:27:17.741Z,10.80
2022-12-20T03:29:24.979Z,10.43
2022-12-20T03:31:32.119Z,10.00
2022-12-20T03:33:40.970Z,9.75
2022-12-20T03:35:48.203Z,10.07
2022-12-20T03:37:58.206Z,10.23
2022-12-20T03:40:05.388Z,9.82
2022-12-20T03:42:13.284Z,8.75
2022-12-20T03:44:20.406Z,8.95
2022-12-20T03:46:29.012Z,9.10
2022-12-20T03:48:36.311Z,9.00
2022-12-20T03:50:45.951Z,8.80
2022-12-20T03:52:52.925Z,8.23
2022-12-20T03:55:00.319Z,7.78
2022-12-20T03:57:15.635Z,8.73
2022-12-20T03:59:24.711Z,8.95
2022-12-20T04:01:34.256Z,7.63
2022-12-20T04:03:41.406Z,8.48
2022-12-20T04:05:50.559Z,7.80
2022-12-20T04:07:57.942Z,7.97
2022-12-20T04:10:04.818Z,7.35
2022-12-20T04:12:12.563Z,7.28
2022-12-20T04:14:19.640Z,7.68
2022-12-20T04:16:28.113Z,7.97
2022-12-20T04:18:35.796Z,8.00
2022-12-20T04:20:44.002Z,8.60
2022-12-20T04:23:01.885Z,7.45
2022-12-20T04:25:09.736Z,6.60
2022-12-20T04:27:19.114Z,6.55
2022-12-20T04:29:26.605Z,6.78
2022-12-20T04:31:33.757Z,7.35
2022-12-20T04:33:41.068Z,6.72
2022-12-20T04:35:48.662Z,6.72
2022-12-20T04:37:55.992Z,6.70
2022-12-20T04:40:04.866Z,7.05
2022-12-20T04:42:22.186Z,7.43
2022-12-20T04:44:31.007Z,7.47
2022-12-20T04:46:38.283Z,7.25
2022-12-20T04:48:59.062Z,8.30
2022-12-20T04:51:08.166Z,7.97
2022-12-20T04:53:32.141Z,8.52
2022-12-20T04:55:43.315Z,7.60
2022-12-20T04:57:50.242Z,6.90
2022-12-20T04:59:57.123Z,6.80
2022-12-20T05:02:04.148Z,7.32
2022-12-20T05:04:37.036Z,7.53
2022-12-20T05:06:45.436Z,7.30
2022-12-20T05:08:53.746Z,7.20
2022-12-20T05:11:02.980Z,7.70
2022-12-20T05:13:11.598Z,7.97
2022-12-20T05:15:22.153Z,8.25
2022-12-20T05:17:29.235Z,8.45
2022-12-20T05:19:36.362Z,7.53
2022-12-20T05:22:00.183Z,7.72
2022-12-20T05:24:24.930Z,8.40
2022-12-20T05:26:47.262Z,7.90
2022-12-20T05:28:56.697Z,7.82
2022-12-20T05:31:05.605Z,8.32
2022-12-20T05:33:15.005Z,8.10
2022-12-20T05:35:23.886Z,8.32
2022-12-20T05:37:37.567Z,8.18
2022-12-20T05:39:52.887Z,8.70
2022-12-20T05:42:04.314Z,8.05
2022-12-20T05:44:11.238Z,7.65
2022-12-20T05:46:22.102Z,8.32
2022-12-20T05:48:36.616Z,7.05
2022-12-20T05:50:45.226Z,8.82
2022-12-20T05:53:12.263Z,7.78
2022-12-20T05:55:26.058Z,7.90
2022-12-20T05:57:35.082Z,8.15
2022-12-20T05:59:42.314Z,7.68
2022-12-20T06:01:56.338Z,7.97
2022-12-20T06:04:04.339Z,8.38
2022-12-20T06:06:14.749Z,8.27
2022-12-20T06:08:26.019Z,8.27
2022-12-20T06:10:35.691Z,7.45
2022-12-20T06:12:44.708Z,7.90
2022-12-20T06:14:52.195Z,8.68
2022-12-20T06:16:59.944Z,7.75
2022-12-20T06:19:06.968Z,8.32
2022-12-20T06:21:14.355Z,8.23
2022-12-20T06:23:21.288Z,7.63
2022-12-20T06:25:37.980Z,8.18
2022-12-20T06:27:46.805Z,8.00
2022-12-20T06:29:55.991Z,8.53
2022-12-20T06:32:07.844Z,7.90
2022-12-20T06:34:15.211Z,8.48
2022-12-20T06:36:22.448Z,7.95
2022-12-20T06:38:31.020Z,8.45
2022-12-20T06:40:38.034Z,8.65
2022-12-20T06:42:47.421Z,8.70
2022-12-20T06:44:54.669Z,11.10
2022-12-20T06:47:01.696Z,11.68
2022-12-20T06:49:09.066Z,11.00
2022-12-20T06:51:16.657Z,8.90
2022-12-20T06:53:23.374Z,9.38
2022-12-20T06:55:30.818Z,8.23
2022-12-20T06:57:37.700Z,8.50
2022-12-20T06:59:46.405Z,8.32
2022-12-20T07:01:53.438Z,8.35
2022-12-20T07:04:00.822Z,9.07
2022-12-20T07:06:08.026Z,8.57
2022-12-20T07:08:15.185Z,7.85
2022-12-20T07:10:22.422Z,8.00
2022-12-20T07:12:29.853Z,7.22
2022-12-20T07:14:36.830Z,7.97
2022-12-20T07:16:47.479Z,8.77
2022-12-20T07:18:55.142Z,8.60
2022-12-20T07:21:04.162Z,8.90
2022-12-20T07:23:11.445Z,8.68
2022-12-20T07:25:18.600Z,7.97
2022-12-20T07:27:25.910Z,8.30
2022-12-20T07:29:33.248Z,7.63
2022-12-20T07:31:40.475Z,8.60
2022-12-20T07:33:49.148Z,9.10
2022-12-20T07:36:02.841Z,9.10
2022-12-20T07:38:09.604Z,8.68
2022-12-20T07:40:17.517Z,7.75
2022-12-20T07:42:27.761Z,8.57
2022-12-20T07:44:42.818Z,7.78
2022-12-20T07:46:50.463Z,8.30
2022-12-20T07:48:59.548Z,7.65
2022-12-20T07:51:11.479Z,7.82
2022-12-20T07:53:19.027Z,8.88
2022-12-20T07:55:26.136Z,8.75
2022-12-20T07:57:39.331Z,8.25
2022-12-20T07:59:49.014Z,7.90
2022-12-20T08:02:02.539Z,8.07
2022-12-20T08:04:15.877Z,7.65
2022-12-20T08:06:23.154Z,8.40
2022-12-20T08:08:30.335Z,8.18
2022-12-20T08:10:37.936Z,8.80
2022-12-20T08:12:46.546Z,9.45
2022-12-20T08:14:57.104Z,10.98
2022-12-20T08:17:03.963Z,8.85
2022-12-20T08:19:12.640Z,7.80
2022-12-20T08:21:20.140Z,7.10
2022-12-20T08:23:27.727Z,7.50
2022-12-20T08:25:40.932Z,11.30
2022-12-20T08:27:48.640Z,11.07
2022-12-20T08:29:55.676Z,9.88
2022-12-20T08:32:02.952Z,12.02
2022-12-20T08:34:12.080Z,22.55
2022-12-20T08:36:19.312Z,21.00
2022-12-20T08:38:26.036Z,14.40
2022-12-20T08:40:33.063Z,8.65
2022-12-20T08:42:39.887Z,8.02
2022-12-20T08:44:46.912Z,14.75
2022-12-20T08:46:55.170Z,26.15
2022-12-20T08:49:02.142Z,11.38
2022-12-20T08:51:13.088Z,7.90
2022-12-20T08:53:20.195Z,9.73
2022-12-20T08:55:29.093Z,9.48
2022-12-20T08:57:36.658Z,10.23
2022-12-20T08:59:43.847Z,9.75
2022-12-20T09:01:51.651Z,9.40
2022-12-20T09:03:58.560Z,9.48
2022-12-20T09:06:07.702Z,9.18
2022-12-20T09:08:17.435Z,8.77
2022-12-20T09:10:24.303Z,9.68
2022-12-20T09:12:31.284Z,9.65
2022-12-20T09:14:38.159Z,9.20
2022-12-20T09:16:45.439Z,9.48
2022-12-20T09:18:55.648Z,8.77
2022-12-20T09:21:08.405Z,8.40
2022-12-20T09:23:17.096Z,8.68
2022-12-20T09:25:24.313Z,8.60
2022-12-20T09:27:31.285Z,9.05
2022-12-20T09:29:38.418Z,11.50
2022-12-20T09:31:45.342Z,9.00
2022-12-20T09:33:52.824Z,8.57
2022-12-20T09:36:00.136Z,9.13
2022-12-20T09:38:07.347Z,10.23
2022-12-20T09:40:23.592Z,10.00
2022-12-20T09:42:33.078Z,10.02
2022-12-20T09:44:43.993Z,10.75
2022-12-20T09:46:56.482Z,10.55
2022-12-20T09:49:03.630Z,11.35
2022-12-20T09:51:19.492Z,10.07
2022-12-20T09:53:38.676Z,10.35
2022-12-20T09:55:53.691Z,10.05
2022-12-20T09:58:11.332Z,10.52
2022-12-20T10:00:21.338Z,11.45
2022-12-20T10:02:57.209Z,11.80
2022-12-20T10:04:58.034Z,12.07
2022-12-20T10:07:21.465Z,11.55
2022-12-20T10:09:53.801Z,11.18
2022-12-20T10:12:10.850Z,11.60
2022-12-20T10:14:32.570Z,21.38
2022-12-20T10:16:45.999Z,23.00
2022-12-20T10:19:01.362Z,20.63
2022-12-20T10:21:14.661Z,20.98
2022-12-20T10:23:33.537Z,19.80
2022-12-20T10:25:41.351Z,17.60
2022-12-20T10:27:52.068Z,14.23
2022-12-20T10:29:59.296Z,12.73
2022-12-20T10:32:13.751Z,11.60
2022-12-20T10:34:20.727Z,11.63
2022-12-20T10:36:30.333Z,11.75
2022-12-20T10:38:48.959Z,11.73
2022-12-20T10:41:22.778Z,11.25
2022-12-20T10:43:39.627Z,11.05
2022-12-20T10:45:48.960Z,12.15
2022-12-20T10:48:02.089Z,11.95
2022-12-20T10:50:19.245Z,12.48
2022-12-20T10:52:26.087Z,12.60
2022-12-20T10:54:38.376Z,12.35
2022-12-20T10:59:01.565Z,13.10
2022-12-20T11:01:15.323Z,14.45
2022-12-20T11:03:24.425Z,13.10
2022-12-20T11:05:31.378Z,12.25
2022-12-20T11:07:38.664Z,13.63
2022-12-20T11:09:59.705Z,14.77
2022-12-20T11:12:10.337Z,14.75
2022-12-20T11:14:23.318Z,15.85
2022-12-20T11:16:38.120Z,17.67
2022-12-20T11:18:55.019Z,17.70
2022-12-20T11:21:18.564Z,20.30
2022-12-20T11:23:36.007Z,24.40
2022-12-20T11:26:02.320Z,27.23
2022-12-20T11:28:23.612Z,29.20
2022-12-20T11:30:41.009Z,27.85
2022-12-20T11:33:11.601Z,28.60
2022-12-20T11:35:22.728Z,31.85
2022-12-20T11:37:30.777Z,34.47
2022-12-20T11:39:46.562Z,31.08
2022-12-20T11:42:02.499Z,31.50
2022-12-20T11:44:25.891Z,34.08
2022-12-20T11:46:46.317Z,35.40
2022-12-20T11:49:06.640Z,34.90
2022-12-20T11:51:26.635Z,35.38
2022-12-20T11:53:39.632Z,35.45
2022-12-20T11:55:50.268Z,33.17
2022-12-20T11:58:18.762Z,31.67
2022-12-20T12:00:27.808Z,31.83
2022-12-20T12:02:41.343Z,32.00
2022-12-20T12:04:53.537Z,32.22
2022-12-20T12:07:05.228Z,29.90
2022-12-20T12:09:23.890Z,32.50
2022-12-20T12:14:03.482Z,29.08
2022-12-20T12:16:14.402Z,27.75
2022-12-20T12:18:26.604Z,27.97
2022-12-20T12:22:45.470Z,29.35
2022-12-20T12:24:55.987Z,30.02
2022-12-20T12:27:03.724Z,29.50
2022-12-20T12:29:16.039Z,28.85
2022-12-20T12:31:29.789Z,29.73
2022-12-20T12:33:43.906Z,30.92
2022-12-20T12:36:18.946Z,30.48
2022-12-20T12:39:02.443Z,30.60
2022-12-20T12:41:38.017Z,33.42
2022-12-20T12:43:53.804Z,31.08
2022-12-20T12:46:03.369Z,31.30
2022-12-20T12:48:17.125Z,29.70
2022-12-20T12:50:30.361Z,31.85
2022-12-20T12:52:49.004Z,30.48
2022-12-20T12:54:56.029Z,33.20
2022-12-20T12:57:05.976Z,32.65
2022-12-20T12:59:44.799Z,32.08
2022-12-20T13:01:54.883Z,32.35
2022-12-20T13:04:31.825Z,33.50
2022-12-20T13:07:22.790Z,32.20
2022-12-20T13:09:45.588Z,29.17
2022-12-20T13:12:00.392Z,27.95
2022-12-20T13:14:52.583Z,27.75
2022-12-20T13:17:35.384Z,27.23
2022-12-20T13:19:43.706Z,27.85
2022-12-20T13:21:51.500Z,26.40
2022-12-20T13:24:43.477Z,27.13
2022-12-20T13:26:56.861Z,25.70
2022-12-20T13:29:27.306Z,27.38
2022-12-20T13:31:39.591Z,26.40
2022-12-20T13:33:48.561Z,26.52
2022-12-20T13:36:03.784Z,25.92
2022-12-20T13:38:52.801Z,26.73
2022-12-20T13:41:02.494Z,26.83
2022-12-20T13:43:19.454Z,25.88
2022-12-20T13:45:27.755Z,26.73
2022-12-20T13:47:40.976Z,26.20
2022-12-20T13:49:48.467Z,28.25
2022-12-20T13:52:21.863Z,29.50
2022-12-20T13:54:29.095Z,29.58
2022-12-20T13:56:41.657Z,32.17
2022-12-20T13:58:51.263Z,33.33
2022-12-20T14:01:06.948Z,31.02
2022-12-20T14:03:26.636Z,31.38
2022-12-20T14:05:39.821Z,30.30
2022-12-20T14:07:49.869Z,40.20
2022-12-20T14:10:01.963Z,46.40
2022-12-20T14:12:18.017Z,41.42
2022-12-20T14:14:31.995Z,34.13
2022-12-20T14:16:40.017Z,35.75
2022-12-20T14:18:52.503Z,36.90
2022-12-20T14:21:02.397Z,36.47
2022-12-20T14:23:13.879Z,38.30
2022-12-20T14:25:25.774Z,39.80
2022-12-20T14:27:36.587Z,43.10
2022-12-20T14:29:48.121Z,41.55
2022-12-20T14:31:55.156Z,37.42
2022-12-20T14:34:11.546Z,35.45
2022-12-20T14:36:22.878Z,36.13
2022-12-20T14:38:34.413Z,37.80
2022-12-20T14:40:50.437Z,35.83
2022-12-20T14:43:01.173Z,36.83
2022-12-20T14:45:27.609Z,37.80
2022-12-20T14:47:35.133Z,38.40
2022-12-20T14:49:43.549Z,40.72
2022-12-20T14:51:51.151Z,40.40
2022-12-20T14:54:00.070Z,37.03
2022-12-20T14:56:07.293Z,38.90
2022-12-20T14:58:28.556Z,39.60
2022-12-20T15:00:37.992Z,40.38
2022-12-20T15:02:49.383Z,42.55
2022-12-20T15:04:56.704Z,44.33
2022-12-20T15:07:04.244Z,41.80
2022-12-20T15:09:11.324Z,41.58
2022-12-20T15:11:24.379Z,44.05
2022-12-20T15:13:35.081Z,43.00
2022-12-20T15:15:44.067Z,44.25
2022-12-20T15:17:51.467Z,43.75
2022-12-20T15:19:58.549Z,43.17
2022-12-20T15:22:05.626Z,45.47
2022-12-20T15:24:16.290Z,42.17
2022-12-20T15:26:24.860Z,45.35
2022-12-20T15:28:31.831Z,45.67
2022-12-20T15:30:39.779Z,47.95
2022-12-20T15:32:55.531Z,50.40
2022-12-20T15:35:03.362Z,49.20
2022-12-20T15:37:14.218Z,49.20
2022-12-20T15:39:25.919Z,51.97
2022-12-20T15:41:34.655Z,56.63
2022-12-20T15:43:43.081Z,50.38
2022-12-20T15:45:54.168Z,48.90
2022-12-20T15:48:03.149Z,47.22
2022-12-20T15:50:11.447Z,50.60
2022-12-20T15:52:22.992Z,53.58
2022-12-20T15:54:31.802Z,57.35
2022-12-20T15:56:38.932Z,54.83
2022-12-20T15:58:48.469Z,51.47
2022-12-20T16:00:59.518Z,49.78
2022-12-20T16:03:08.670Z,57.13
2022-12-20T16:05:17.284Z,55.13
2022-12-20T16:07:24.266Z,55.78
2022-12-20T16:09:31.544Z,63.15
2022-12-20T16:11:38.779Z,64.38
2022-12-20T16:13:46.176Z,69.25
2022-12-20T16:15:53.391Z,77.47
2022-12-20T16:18:00.539Z,69.13
2022-12-20T16:20:10.377Z,63.20
2022-12-20T16:22:20.133Z,59.92
2022-12-20T16:24:26.985Z,63.25
2022-12-20T16:26:34.372Z,63.45
2022-12-20T16:28:41.246Z,66.00
2022-12-20T16:30:53.179Z,67.78
2022-12-20T16:33:01.401Z,71.30
2022-12-20T16:35:15.797Z,65.85
2022-12-20T16:37:22.876Z,64.63
2022-12-20T16:39:30.015Z,65.07
2022-12-20T16:41:37.292Z,65.03
2022-12-20T16:43:44.576Z,62.50
2022-12-20T16:45:51.602Z,62.63
2022-12-20T16:47:59.093Z,63.25
2022-12-20T16:50:06.016Z,61.15
2022-12-20T16:52:21.593Z,56.85
2022-12-20T16:54:28.575Z,57.45
2022-12-20T16:56:36.163Z,58.05
2022-12-20T16:59:17.211Z,53.30
2022-12-20T17:01:16.755Z,55.40
2022-12-20T17:03:24.102Z,55.53
2022-12-20T17:05:33.623Z,53.65
2022-12-20T17:07:42.286Z,52.45
2022-12-20T17:09:49.393Z,48.05
2022-12-20T17:11:56.445Z,46.25
2022-12-20T17:14:08.795Z,45.58
2022-12-20T17:16:19.929Z,47.92
2022-12-20T17:18:27.042Z,49.88
2022-12-20T17:20:36.997Z,44.00
2022-12-20T17:22:46.428Z,44.75
2022-12-20T17:24:53.405Z,41.97
2022-12-20T17:27:01.268Z,41.53
2022-12-20T17:29:08.737Z,44.45
2022-12-20T17:31:29.194Z,48.22
2022-12-20T17:33:36.218Z,47.22
2022-12-20T17:35:43.190Z,45.05
2022-12-20T17:37:53.219Z,44.63
2022-12-20T17:40:00.251Z,41.17
2022-12-20T17:42:10.110Z,45.42
2022-12-20T17:44:22.458Z,44.35
2022-12-20T17:46:29.837Z,43.00
2022-12-20T17:48:43.443Z,44.47
2022-12-20T17:50:50.544Z,43.10
2022-12-20T17:52:59.482Z,40.88
2022-12-20T17:55:06.609Z,41.17
2022-12-20T17:57:17.485Z,43.28
2022-12-20T17:59:26.873Z,44.00
2022-12-20T18:01:35.195Z,40.75
2022-12-20T18:04:07.084Z,42.83
2022-12-20T18:06:10.520Z,41.55
2022-12-20T18:08:19.344Z,43.70
2022-12-20T18:10:26.718Z,42.80
2022-12-20T18:12:37.415Z,44.33
2022-12-20T18:14:44.677Z,44.15
2022-12-20T18:16:51.756Z,46.47
2022-12-20T18:18:59.551Z,45.17
2022-12-20T18:21:07.198Z,48.28
2022-12-20T18:23:14.226Z,53.20
2022-12-20T18:25:22.989Z,68.72
2022-12-20T18:27:31.060Z,64.45
2022-12-20T18:29:37.958Z,57.22
2022-12-20T18:31:45.393Z,59.65
2022-12-20T18:33:57.501Z,58.20
2022-12-20T18:36:06.927Z,53.97
2022-12-20T18:38:14.309Z,57.40
2022-12-20T18:40:26.267Z,57.08
2022-12-20T18:42:33.254Z,64.72
2022-12-20T18:44:40.544Z,62.55
2022-12-20T18:46:47.505Z,64.18
2022-12-20T18:48:55.612Z,68.90
2022-12-20T18:51:07.754Z,67.20
2022-12-20T18:53:14.884Z,62.78
2022-12-20T18:55:23.553Z,60.85
2022-12-20T18:57:30.684Z,70.15
2022-12-20T18:59:39.100Z,66.95
2022-12-20T19:01:46.882Z,64.30
2022-12-20T19:03:54.535Z,60.63
2022-12-20T19:06:02.747Z,48.20
2022-12-20T19:08:09.815Z,49.35
2022-12-20T19:10:16.997Z,53.55
2022-12-20T19:12:25.614Z,51.88
2022-12-20T19:14:32.998Z,52.55
2022-12-20T19:16:40.938Z,50.45
2022-12-20T19:18:48.648Z,51.53
2022-12-20T19:20:55.617Z,51.38
2022-12-20T19:23:02.758Z,49.45
2022-12-20T19:25:10.343Z,48.17
2022-12-20T19:27:17.623Z,50.33
2022-12-20T19:29:26.418Z,50.22
2022-12-20T19:31:34.977Z,48.75
2022-12-20T19:33:42.908Z,48.03
2022-12-20T19:35:57.301Z,53.88
2022-12-20T19:38:04.233Z,55.55
2022-12-20T19:40:12.446Z,58.90
2022-12-20T19:42:24.163Z,60.10
2022-12-20T19:44:33.567Z,60.95
2022-12-20T19:46:40.574Z,62.55
2022-12-20T19:48:47.770Z,58.10
2022-12-20T19:50:54.693Z,59.30
2022-12-20T19:53:01.925Z,55.88
2022-12-20T19:55:09.570Z,54.85
2022-12-20T19:57:17.113Z,53.97
2022-12-20T19:59:24.188Z,55.78
2022-12-20T20:01:33.359Z,52.40
2022-12-20T20:03:40.612Z,50.40
2022-12-20T20:05:47.866Z,49.95
2022-12-20T20:07:55.188Z,49.10
2022-12-20T20:10:02.502Z,49.30
2022-12-20T20:12:09.939Z,50.28
2022-12-20T20:14:17.277Z,48.08
2022-12-20T20:16:25.023Z,48.13
2022-12-20T20:18:36.722Z,47.85
2022-12-20T20:20:44.561Z,49.60
2022-12-20T20:22:51.887Z,49.55
2022-12-20T20:24:59.842Z,55.20
2022-12-20T20:27:07.174Z,56.58
2022-12-20T20:29:14.045Z,53.85
2022-12-20T20:31:22.361Z,58.40
2022-12-20T20:33:29.476Z,63.92
2022-12-20T20:35:38.511Z,76.10
2022-12-20T20:37:46.087Z,96.00
2022-12-20T20:39:53.290Z,76.93
2022-12-20T20:42:00.213Z,79.40
2022-12-20T20:44:07.645Z,68.38
2022-12-20T20:46:16.345Z,58.05
2022-12-20T20:48:23.499Z,55.28
2022-12-20T20:50:31.032Z,61.97
2022-12-20T20:52:39.955Z,61.63
2022-12-20T20:54:46.900Z,55.95
2022-12-20T20:56:54.114Z,57.10
2022-12-20T20:59:05.246Z,59.63
2022-12-20T21:01:15.499Z,55.78
2022-12-20T21:03:22.574Z,60.50
2022-12-20T21:07:58.590Z,56.13
2022-12-20T21:10:05.809Z,58.08
2022-12-20T21:12:13.095Z,57.17
2022-12-20T21:14:43.386Z,60.45
2022-12-20T21:16:47.684Z,69.25
2022-12-20T21:18:55.715Z,104.32
2022-12-20T21:21:02.993Z,103.95
2022-12-20T21:26:00.182Z,82.43
2022-12-20T21:28:07.637Z,66.45
2022-12-20T21:30:15.128Z,62.85
2022-12-20T21:32:22.304Z,54.55
2022-12-20T21:34:29.140Z,52.53
2022-12-20T21:36:36.878Z,54.08
2022-12-20T21:38:45.654Z,51.75
2022-12-20T21:40:52.614Z,48.00
2022-12-20T21:42:59.442Z,48.13
2022-12-20T21:45:06.673Z,46.05
2022-12-20T21:47:13.754Z,46.97
2022-12-20T21:49:20.831Z,46.55
2022-12-20T21:51:28.632Z,49.55
2022-12-20T21:53:36.429Z,45.17
2022-12-20T21:55:44.841Z,43.60
2022-12-20T21:57:51.964Z,43.10
2022-12-20T21:59:58.684Z,44.90
2022-12-20T22:02:06.012Z,46.28
2022-12-20T22:04:14.891Z,43.83
2022-12-20T22:06:21.966Z,43.92
2022-12-20T22:08:29.972Z,42.92
2022-12-20T22:10:37.000Z,42.20
2022-12-20T22:12:45.461Z,42.38
2022-12-20T22:14:52.695Z,43.25
2022-12-20T22:16:59.577Z,42.90
2022-12-20T22:19:06.857Z,44.28
2022-12-20T22:21:15.778Z,43.45
2022-12-20T22:23:22.903Z,43.97
2022-12-20T22:25:29.727Z,44.08
2022-12-20T22:27:36.806Z,43.25
2022-12-20T22:29:45.576Z,43.97
2022-12-20T22:31:53.590Z,43.13
2022-12-20T22:34:01.017Z,40.75
2022-12-20T22:36:08.758Z,41.25
2022-12-20T22:38:16.248Z,41.05
2022-12-20T22:40:24.143Z,41.08
2022-12-20T22:42:31.074Z,41.30
2022-12-20T22:44:38.151Z,42.53
2022-12-20T22:46:46.557Z,44.63
2022-12-20T22:48:53.551Z,43.75
2022-12-20T22:51:03.061Z,44.15
2022-12-20T22:53:10.209Z,42.35
2022-12-20T22:55:17.027Z,43.95
2022-12-20T22:57:24.162Z,43.65
2022-12-20T22:59:30.928Z,42.85
2022-12-20T23:01:38.129Z,44.50
2022-12-20T23:03:47.293Z,46.38
2022-12-20T23:05:58.877Z,44.40
2022-12-20T23:08:05.966Z,45.70
2022-12-20T23:10:34.368Z,47.60
2022-12-20T23:13:12.283Z,50.00
2022-12-20T23:15:35.848Z,45.53
2022-12-20T23:17:42.623Z,44.55
2022-12-20T23:20:16.418Z,51.70
2022-12-20T23:22:43.647Z,53.13
2022-12-20T23:24:51.221Z,52.03
2022-12-20T23:26:58.591Z,53.05
2022-12-20T23:29:06.656Z,51.28
2022-12-20T23:31:14.617Z,51.78
2022-12-20T23:33:21.532Z,54.63
2022-12-20T23:35:30.354Z,53.47
2022-12-20T23:37:37.124Z,55.33
2022-12-20T23:39:44.308Z,60.78
2022-12-20T23:41:51.080Z,77.63
2022-12-20T23:43:58.059Z,78.70
2022-12-20T23:46:07.323Z,74.15
2022-12-20T23:48:14.620Z,73.10
2022-12-20T23:50:21.598Z,70.35
2022-12-20T23:52:30.431Z,72.22
2022-12-20T23:54:37.192Z,68.00
2022-12-20T23:56:44.369Z,62.22
2022-12-20T23:58:55.543Z,63.53
